createdAt,value
2022-09-21T00:00:45.399Z,8.38
2022-09-21T00:10:46.857Z,8.25
2022-09-21T00:20:48.245Z,8.18
2022-09-21T00:30:51.922Z,8.02
2022-09-21T00:40:54.372Z,8.00
2022-09-21T00:50:56.203Z,7.90
2022-09-21T01:00:57.542Z,7.82
2022-09-21T01:10:58.916Z,7.80
2022-09-21T01:21:00.469Z,7.65
2022-09-21T01:31:06.251Z,7.51
2022-09-21T01:41:08.090Z,7.49
2022-09-21T01:51:09.796Z,7.35
2022-09-21T02:01:11.174Z,7.30
2022-09-21T02:11:13.450Z,7.20
2022-09-21T02:21:15.346Z,7.13
2022-09-21T02:31:17.732Z,6.84
2022-09-21T02:41:19.836Z,6.78
2022-09-21T02:51:21.154Z,6.90
2022-09-21T03:01:22.458Z,7.00
2022-09-21T03:11:23.756Z,6.83
2022-09-21T03:21:25.027Z,6.69
2022-09-21T03:31:26.347Z,6.72
2022-09-21T03:41:27.737Z,6.55
2022-09-21T03:51:29.923Z,6.51
2022-09-21T04:01:31.508Z,6.26
2022-09-21T04:11:33.381Z,6.22
2022-09-21T04:21:34.723Z,6.21
2022-09-21T04:31:36.062Z,6.14
2022-09-21T04:41:37.394Z,6.19
2022-09-21T04:51:39.111Z,6.22
2022-09-21T05:01:40.549Z,6.16
2022-09-21T05:11:41.876Z,6.14
2022-09-21T05:21:43.169Z,6.08
2022-09-21T05:31:44.630Z,6.21
2022-09-21T05:41:46.002Z,6.19
2022-09-21T05:51:47.315Z,6.21
2022-09-21T06:01:48.638Z,6.34
2022-09-21T06:11:49.960Z,6.61
2022-09-21T06:21:51.262Z,6.77
2022-09-21T06:31:52.591Z,7.04
2022-09-21T06:41:53.956Z,7.29
2022-09-21T06:51:55.268Z,7.56
2022-09-21T07:01:58.492Z,7.80
2022-09-21T07:12:00.223Z,8.12
2022-09-21T07:22:01.546Z,8.42
2022-09-21T07:32:02.919Z,8.95
2022-09-21T07:42:04.260Z,9.06
2022-09-21T07:52:09.393Z,9.55
2022-09-21T08:02:12.062Z,9.73
2022-09-21T08:12:13.374Z,10.14
2022-09-21T08:22:14.673Z,10.28
2022-09-21T08:32:39.441Z,10.62
2022-09-21T08:42:37.276Z,11.02
2022-09-21T08:52:38.554Z,11.23
2022-09-21T09:02:39.883Z,11.54
2022-09-21T09:12:41.280Z,12.05
2022-09-21T09:22:42.620Z,12.27
2022-09-21T09:32:44.085Z,12.69
2022-09-21T09:42:45.391Z,12.95
2022-09-21T09:52:46.698Z,13.43
2022-09-21T10:02:49.408Z,13.47
2022-09-21T10:12:50.727Z,13.97
2022-09-21T10:22:51.941Z,14.31
2022-09-21T10:32:53.271Z,14.27
2022-09-21T10:42:54.786Z,14.59
2022-09-21T10:52:56.914Z,14.84
2022-09-21T11:02:58.455Z,14.45
2022-09-21T11:12:59.940Z,14.76
2022-09-21T11:23:01.366Z,15.33
2022-09-21T11:33:03.192Z,15.55
2022-09-21T11:43:04.607Z,16.19
2022-09-21T11:53:05.970Z,15.73
2022-09-21T12:03:07.396Z,15.80
2022-09-21T12:13:08.845Z,15.46
2022-09-21T12:23:10.108Z,15.60
2022-09-21T12:33:11.812Z,15.95
2022-09-21T12:43:13.020Z,16.16
2022-09-21T12:53:14.337Z,16.40
2022-09-21T13:03:15.634Z,16.46
2022-09-21T13:13:18.150Z,16.27
2022-09-21T13:23:19.433Z,16.37
2022-09-21T13:33:20.648Z,16.72
2022-09-21T13:43:21.954Z,16.48
2022-09-21T13:53:23.488Z,16.59
2022-09-21T14:03:24.784Z,16.63
2022-09-21T14:13:26.147Z,16.89
2022-09-21T14:23:27.970Z,16.61
2022-09-21T14:33:29.341Z,16.87
2022-09-21T14:43:30.631Z,16.72
2022-09-21T14:53:34.499Z,16.80
2022-09-21T15:03:39.345Z,16.70
2022-09-21T15:13:41.829Z,16.65
2022-09-21T15:23:44.105Z,16.86
2022-09-21T15:33:46.737Z,16.71
2022-09-21T15:43:48.068Z,16.60
2022-09-21T15:53:49.363Z,16.62
2022-09-21T16:03:55.149Z,16.48
2022-09-21T16:14:17.093Z,16.40
2022-09-21T17:06:02.607Z,15.37
2022-09-21T17:16:03.981Z,15.10
2022-09-21T17:26:05.343Z,14.68
2022-09-21T17:36:06.614Z,14.37
2022-09-21T17:46:08.406Z,14.09
2022-09-21T17:56:09.784Z,13.74
2022-09-21T18:06:11.132Z,13.28
2022-09-21T18:16:12.444Z,12.87
2022-09-21T18:26:15.571Z,12.43
2022-09-21T18:36:16.912Z,12.33
2022-09-21T18:46:18.176Z,12.34
2022-09-21T18:56:20.506Z,12.32
2022-09-21T19:06:22.258Z,12.03
2022-09-21T19:16:23.622Z,11.89
2022-09-21T19:26:24.978Z,11.79
2022-09-21T19:36:26.199Z,11.53
2022-09-21T19:46:27.762Z,11.46
2022-09-21T19:56:50.987Z,11.27
2022-09-21T20:06:55.472Z,11.06
2022-09-21T20:16:57.185Z,10.74
2022-09-21T20:26:58.712Z,10.51
2022-09-21T20:37:00.032Z,10.41
2022-09-21T20:47:01.356Z,10.24
2022-09-21T20:57:02.687Z,10.08
2022-09-21T21:07:04.387Z,10.05
2022-09-21T21:17:06.122Z,9.82
2022-09-21T21:27:07.453Z,9.66
2022-09-21T21:37:09.242Z,9.39
2022-09-21T21:47:35.095Z,9.22
2022-09-21T21:57:33.324Z,8.96
2022-09-21T22:07:34.680Z,8.80
2022-09-21T22:17:35.979Z,8.62
2022-09-21T22:27:37.184Z,8.40
2022-09-21T22:37:38.590Z,7.95
2022-09-21T22:47:41.604Z,7.91
2022-09-21T22:57:42.950Z,7.92
2022-09-21T23:07:44.264Z,7.59
2022-09-21T23:17:45.563Z,7.41
2022-09-21T23:27:46.908Z,7.33
2022-09-21T23:37:48.224Z,7.27
2022-09-21T23:47:49.521Z,7.14
2022-09-21T23:57:51.236Z,7.01
